Flight Track Log - Related Links

Times and Time Zones

All times are in EDT time to prevent confusion due to time zone crossing. See the N990CB flight status page for this flight to view local times or setup timezone preferences in your user account.

Time Position Orientation Groundspeed Altitude Reporting Facility
EDT Latitude Longitude Course Direction KTS MPH feet Rate Location/Type
Fri 12:43:15 PM 39.6833 -75.5500 14° North 177 204 2,500  Level Philadelphia TRACON
Fri 12:44:15 PM 39.7333 -75.5333 14° North 184 212 3,900 1,700 Climbing Philadelphia TRACON
Fri 12:45:15 PM 39.7833 -75.5167 14° North 168 193 5,900 1,950 Climbing Philadelphia TRACON
Fri 12:46:15 PM 39.8167 -75.5000 21° North 167 192 7,800 1,850 Climbing Philadelphia TRACON
Fri 12:47:15 PM 39.8667 -75.4833 14° North 167 192 9,600 1,667 Climbing Philadelphia TRACON
Fri 12:48:21 PM 39.9167 -75.4500 27° Northeast 176 203 11,300 905 Climbing Philadelphia TRACON
Fri 12:49:21 PM 39.9667 -75.4333 14° North 237 273 11,500 105 Climbing Philadelphia TRACON
Fri 12:50:15 PM 40.0333 -75.4000 21° North 255 293 11,500  Level Philadelphia TRACON
Fri 12:51:15 PM 40.1000 -75.3833 11° North 253 291 11,500  Level Philadelphia TRACON
Fri 12:52:15 PM 40.1667 -75.3500 21° North 253 291 11,500  Level Philadelphia TRACON
Fri 12:53:15 PM 40.2333 -75.3167 21° North 251 289 11,500  Level Philadelphia TRACON
Fri 12:54:16 PM 40.3000 -75.2833 21° North 252 290 11,500  Level Philadelphia TRACON
Fri 12:55:05 PM 40.3467 -75.2697 13° North 273 314 11,500  Level New York Center
Fri 12:56:03 PM 40.4122 -75.2414 18° North 272 313 11,500  Level New York Center
Fri 12:57:03 PM 40.4822 -75.2106 19° North 254 292 11,500  Level New York Center
Fri 12:58:05 PM 40.5481 -75.1819 18° North 247 284 11,500 -146 Level New York Center
Fri 12:59:06 PM 40.6094 -75.1558 18° North 247 284 11,200 -1,220 Descending New York Center
Fri 01:00:03 PM 40.6642 -75.1347 16° North 230 265 9,100 -1,966 Descending New York Center
Fri 01:01:05 PM 40.7400 -75.1150 11° North 246 283 7,300 -2,016 Descending New York Center
Fri 01:02:05 PM 40.8053 -75.0944 13° North 241 277 5,000 -2,350 Descending New York Center
Fri 01:03:05 PM 40.8708 -75.0683 17° North 241 277 2,600 -1,525 Descending New York Center
Fri 01:04:03 PM 40.9342 -75.0475 14° North 241 277 2,000 1,475 Descending New York Center
Fri 01:05:03 PM 40.9975 -75.0242 16° North 241 277 5,500 1,736 Climbing New York Center
Fri 01:06:04 PM 41.0608 -75.0006 16° North 241 277 5,500  Level New York Center
Fri 01:07:05 PM 41.1242 -74.9769 16° North 241 277 5,500  Level New York Center
Fri 01:08:05 PM 41.1494 -74.9675 16° North 241 277 5,500  Level New York Center
Fri 01:10:04 PM 41.1494 -74.9675 360° North 241 277 5,500  Level New York Center
Fri 01:12:05 PM 41.1494 -74.9675 360° North 241 277 5,500  Level New York Center

Login

Don't have an account? Register now (free) for customized features, flight alerts, and more!